createdAt,value
2019-04-26T00:00:19.354Z,64.09
2019-04-26T00:02:53.118Z,64.18
2019-04-26T00:05:33.970Z,64.12
2019-04-26T00:07:57.888Z,64.17
2019-04-26T00:10:33.484Z,64.25
2019-04-26T00:13:09.921Z,64.32
2019-04-26T00:15:54.870Z,64.33
2019-04-26T00:18:26.744Z,64.32
2019-04-26T00:20:59.408Z,64.47
2019-04-26T00:23:30.905Z,64.40
2019-04-26T00:26:01.985Z,64.35
2019-04-26T00:28:32.910Z,64.37
2019-04-26T00:31:03.878Z,64.38
2019-04-26T00:33:36.584Z,64.62
2019-04-26T00:36:07.489Z,64.76
2019-04-26T00:38:38.418Z,64.88
2019-04-26T00:41:09.921Z,65.06
2019-04-26T00:43:41.469Z,65.41
2019-04-26T00:46:14.667Z,65.48
2019-04-26T00:48:46.094Z,65.93
2019-04-26T00:51:17.898Z,65.78
2019-04-26T00:53:49.804Z,65.80
2019-04-26T00:56:22.227Z,65.87
2019-04-26T00:58:53.617Z,66.03
2019-04-26T01:01:26.458Z,65.90
2019-04-26T01:03:57.441Z,65.82
2019-04-26T01:06:29.987Z,65.74
2019-04-26T01:09:00.902Z,65.88
2019-04-26T01:11:31.809Z,65.78
2019-04-26T01:14:02.735Z,65.79
2019-04-26T01:16:34.502Z,65.85
2019-04-26T01:19:09.682Z,65.90
2019-04-26T01:21:43.493Z,65.89
2019-04-26T01:24:18.245Z,65.93
2019-04-26T01:26:51.539Z,66.00
2019-04-26T01:29:23.744Z,66.06
2019-04-26T01:32:09.533Z,66.03
2019-04-26T01:34:42.236Z,66.14
2019-04-26T01:37:13.644Z,66.13
2019-04-26T01:39:49.126Z,66.25
2019-04-26T01:42:30.723Z,66.32
2019-04-26T01:45:21.769Z,66.28
2019-04-26T01:47:55.623Z,66.55
2019-04-26T01:50:29.424Z,66.56
2019-04-26T01:53:02.478Z,66.68
2019-04-26T01:55:33.625Z,66.85
2019-04-26T01:58:06.402Z,66.84
2019-04-26T02:00:48.049Z,66.81
2019-04-26T02:03:26.360Z,67.07
2019-04-26T02:05:57.500Z,67.01
2019-04-26T02:08:28.399Z,66.94
2019-04-26T02:11:00.184Z,66.96
2019-04-26T02:13:31.093Z,67.00
2019-04-26T02:16:02.023Z,67.05
2019-04-26T02:18:33.606Z,67.04
2019-04-26T02:21:22.080Z,66.99
2019-04-26T02:24:04.822Z,67.12
2019-04-26T02:26:43.156Z,67.09
2019-04-26T02:29:17.047Z,67.05
2019-04-26T02:31:53.552Z,67.39
2019-04-26T02:34:26.072Z,67.17
2019-04-26T02:37:01.344Z,67.40
2019-04-26T02:39:37.800Z,67.70
2019-04-26T02:42:28.757Z,67.68
2019-04-26T02:45:22.228Z,67.57
2019-04-26T02:48:14.294Z,67.47
2019-04-26T02:50:49.738Z,67.39
2019-04-26T02:53:33.684Z,67.45
2019-04-26T02:56:29.532Z,67.48
2019-04-26T02:59:03.150Z,67.46
2019-04-26T03:01:36.264Z,67.27
2019-04-26T03:04:06.784Z,67.29
2019-04-26T03:06:41.142Z,67.41
2019-04-26T03:09:16.547Z,67.64
2019-04-26T03:11:56.315Z,67.62
2019-04-26T03:14:29.073Z,67.42
2019-04-26T03:17:16.354Z,67.45
2019-04-26T03:20:03.413Z,67.40
2019-04-26T03:22:46.284Z,67.21
2019-04-26T03:25:23.876Z,67.19
2019-04-26T03:28:22.028Z,67.19
2019-04-26T03:31:12.146Z,67.09
2019-04-26T03:34:02.572Z,67.11
2019-04-26T03:37:00.695Z,67.20
2019-04-26T03:39:51.057Z,67.18
2019-04-26T03:42:27.661Z,67.22
2019-04-26T03:45:18.124Z,67.30
2019-04-26T03:48:00.707Z,67.35
2019-04-26T03:50:44.884Z,67.35
2019-04-26T03:53:30.391Z,67.34
2019-04-26T03:56:20.705Z,67.34
2019-04-26T03:59:09.050Z,67.38
2019-04-26T04:01:59.421Z,67.35
2019-04-26T04:04:36.956Z,67.18
2019-04-26T04:07:10.405Z,67.01
2019-04-26T04:09:44.869Z,66.67
2019-04-26T04:12:24.595Z,66.39
2019-04-26T04:15:07.654Z,66.00
2019-04-26T04:17:45.469Z,65.55
2019-04-26T04:20:35.156Z,65.15
2019-04-26T04:23:08.971Z,65.00
2019-04-26T04:25:49.198Z,64.39
2019-04-26T04:28:53.019Z,63.47
2019-04-26T04:31:40.520Z,62.54
2019-04-26T04:34:30.364Z,61.85
2019-04-26T04:37:04.220Z,61.27
2019-04-26T04:40:04.873Z,60.63
2019-04-26T04:42:52.464Z,60.34
2019-04-26T04:45:46.277Z,59.88
2019-04-26T04:48:24.685Z,59.17
2019-04-26T04:51:34.863Z,58.39
2019-04-26T04:54:23.766Z,58.22
2019-04-26T04:56:57.648Z,58.14
2019-04-26T04:59:52.431Z,57.93
2019-04-26T05:02:33.737Z,57.51
2019-04-26T05:05:12.146Z,56.99
2019-04-26T05:08:07.224Z,56.02
2019-04-26T05:10:54.122Z,55.42
2019-04-26T05:13:47.933Z,54.72
2019-04-26T05:16:41.417Z,54.18
2019-04-26T05:19:32.507Z,53.97
2019-04-26T05:22:25.502Z,53.71
2019-04-26T05:25:49.354Z,53.75
2019-04-26T05:28:30.656Z,53.72
2019-04-26T05:31:30.063Z,53.88
2019-04-26T05:34:17.663Z,53.60
2019-04-26T05:37:00.487Z,53.34
2019-04-26T05:39:40.571Z,53.33
2019-04-26T05:42:16.020Z,53.06
2019-04-26T05:45:21.740Z,52.66
2019-04-26T05:48:31.961Z,52.42
2019-04-26T05:51:33.449Z,53.19
2019-04-26T05:54:42.178Z,52.65
2019-04-26T05:57:39.946Z,53.38
2019-04-26T06:00:27.426Z,53.17
2019-04-26T06:03:20.806Z,52.06
2019-04-26T06:05:56.503Z,51.60
2019-04-26T06:08:40.753Z,51.69
2019-04-26T06:11:18.934Z,50.96
2019-04-26T06:14:04.148Z,51.30
2019-04-26T06:17:15.033Z,51.75
2019-04-26T06:19:59.791Z,50.93
2019-04-26T06:22:36.427Z,51.04
2019-04-26T06:25:33.666Z,50.97
2019-04-26T06:28:10.196Z,50.39
2019-04-26T06:30:47.577Z,50.23
2019-04-26T06:33:24.120Z,49.52
2019-04-26T06:35:59.343Z,49.91
2019-04-26T06:38:59.880Z,49.33
2019-04-26T06:42:09.494Z,48.85
2019-04-26T06:45:30.078Z,48.87
2019-04-26T06:48:12.345Z,48.67
2019-04-26T06:51:02.840Z,48.37
2019-04-26T06:53:48.172Z,47.77
2019-04-26T06:56:38.823Z,47.67
2019-04-26T06:59:17.276Z,48.00
2019-04-26T07:01:51.247Z,48.35
2019-04-26T07:04:31.642Z,48.15
2019-04-26T07:07:25.071Z,48.57
2019-04-26T07:10:02.633Z,49.67
2019-04-26T07:12:52.769Z,49.10
2019-04-26T07:15:41.800Z,48.46
2019-04-26T07:18:32.374Z,48.28
2019-04-26T07:21:17.625Z,48.10
2019-04-26T07:24:26.291Z,47.68
2019-04-26T07:27:19.376Z,47.13
2019-04-26T07:30:12.116Z,46.92
2019-04-26T07:32:49.098Z,46.99
2019-04-26T07:35:25.698Z,46.59
2019-04-26T07:38:09.004Z,46.96
2019-04-26T07:41:34.349Z,46.86
2019-04-26T07:44:21.486Z,46.59
2019-04-26T07:46:55.297Z,45.55
2019-04-26T07:49:35.156Z,45.46
2019-04-26T07:52:17.811Z,45.00
2019-04-26T07:55:20.748Z,44.62
2019-04-26T07:58:19.688Z,44.35
2019-04-26T08:01:04.064Z,44.22
2019-04-26T08:03:44.995Z,43.93
2019-04-26T08:06:21.507Z,43.44
2019-04-26T08:09:00.548Z,43.05
2019-04-26T08:11:50.442Z,42.61
2019-04-26T08:14:24.250Z,42.85
2019-04-26T08:17:15.131Z,42.75
2019-04-26T08:20:12.930Z,43.17
2019-04-26T08:22:47.150Z,43.26
2019-04-26T08:25:21.045Z,43.06
2019-04-26T08:27:56.585Z,42.53
2019-04-26T08:30:30.801Z,42.76
2019-04-26T08:33:07.799Z,43.05
2019-04-26T08:35:40.121Z,43.36
2019-04-26T08:38:19.134Z,43.82
2019-04-26T08:40:45.115Z,43.25
2019-04-26T08:43:22.676Z,42.95
2019-04-26T08:46:03.159Z,42.85
2019-04-26T08:48:50.004Z,43.04
2019-04-26T08:51:25.210Z,42.87
2019-04-26T08:53:58.327Z,42.96
2019-04-26T08:56:35.067Z,42.98
2019-04-26T08:59:12.478Z,42.54
2019-04-26T09:01:47.714Z,42.54
2019-04-26T09:04:22.828Z,42.60
2019-04-26T09:07:03.947Z,40.52
2019-04-26T09:09:37.907Z,40.50
2019-04-26T09:12:23.042Z,39.13
2019-04-26T09:14:51.191Z,38.44
2019-04-26T09:17:22.146Z,39.26
2019-04-26T09:19:53.086Z,38.46
2019-04-26T09:22:31.690Z,39.50
2019-04-26T09:25:04.256Z,39.09
2019-04-26T09:27:36.788Z,38.58
2019-04-26T09:30:16.762Z,40.59
2019-04-26T09:32:49.307Z,41.71
2019-04-26T09:35:20.344Z,41.33
2019-04-26T09:37:51.249Z,41.32
2019-04-26T09:40:22.842Z,41.76
2019-04-26T09:42:55.508Z,41.94
2019-04-26T09:45:28.169Z,43.23
2019-04-26T09:48:03.381Z,43.01
2019-04-26T09:50:38.912Z,43.37
2019-04-26T09:53:09.886Z,44.65
2019-04-26T09:55:40.818Z,44.75
2019-04-26T09:58:11.724Z,45.09
2019-04-26T10:00:48.598Z,45.66
2019-04-26T10:03:17.077Z,46.08
2019-04-26T10:05:47.999Z,45.69
2019-04-26T10:08:30.826Z,45.94
2019-04-26T10:11:02.023Z,45.84
2019-04-26T10:13:37.276Z,45.36
2019-04-26T10:16:12.882Z,45.20
2019-04-26T10:18:45.422Z,45.23
2019-04-26T10:21:16.434Z,45.51
2019-04-26T10:23:47.332Z,45.35
2019-04-26T10:26:18.291Z,45.60
2019-04-26T10:28:50.688Z,45.45
2019-04-26T10:31:22.951Z,45.29
2019-04-26T10:33:53.942Z,44.51
2019-04-26T10:36:26.287Z,44.98
2019-04-26T10:38:58.384Z,45.48
2019-04-26T10:41:29.653Z,45.20
2019-04-26T10:44:00.566Z,45.26
2019-04-26T10:46:31.939Z,45.52
2019-04-26T10:49:09.721Z,46.04
2019-04-26T10:51:41.839Z,46.01
2019-04-26T10:54:12.810Z,45.67
2019-04-26T10:56:54.948Z,46.04
2019-04-26T10:59:35.350Z,46.44
2019-04-26T11:02:10.278Z,46.70
2019-04-26T11:04:42.771Z,46.49
2019-04-26T11:07:14.090Z,47.22
2019-04-26T11:09:44.998Z,46.81
2019-04-26T11:12:16.501Z,47.56
2019-04-26T11:14:47.712Z,47.50
2019-04-26T11:17:19.460Z,47.60
2019-04-26T11:19:50.365Z,47.34
2019-04-26T11:22:29.080Z,47.87
2019-04-26T11:24:54.990Z,47.73
2019-04-26T11:27:26.075Z,47.60
2019-04-26T11:29:59.291Z,47.40
2019-04-26T11:32:36.761Z,47.29
2019-04-26T11:35:06.539Z,47.68
2019-04-26T11:37:37.468Z,47.88
2019-04-26T11:40:10.216Z,48.35
2019-04-26T11:42:45.256Z,48.73
2019-04-26T11:45:15.909Z,48.68
2019-04-26T11:47:55.985Z,48.92
2019-04-26T11:50:20.077Z,49.09
2019-04-26T11:52:51.041Z,49.34
2019-04-26T11:55:25.308Z,49.61
2019-04-26T11:57:54.574Z,49.60
2019-04-26T12:00:36.286Z,49.55
2019-04-26T12:03:08.153Z,49.74
2019-04-26T12:05:43.413Z,49.54
2019-04-26T12:08:15.988Z,49.21
2019-04-26T12:10:46.888Z,49.30
2019-04-26T12:13:21.271Z,49.47
2019-04-26T12:15:50.431Z,49.70
2019-04-26T12:18:21.428Z,49.77
2019-04-26T12:20:52.439Z,49.63
2019-04-26T12:23:23.377Z,49.70
2019-04-26T12:25:54.281Z,50.15
2019-04-26T12:28:25.283Z,50.08
2019-04-26T12:30:58.486Z,49.75
2019-04-26T12:33:30.467Z,49.90
2019-04-26T12:36:01.365Z,49.77
2019-04-26T12:38:32.299Z,49.57
2019-04-26T12:41:03.203Z,49.44
2019-04-26T12:43:34.320Z,49.21
2019-04-26T12:46:09.809Z,49.29
2019-04-26T12:48:40.777Z,49.14
2019-04-26T12:51:13.275Z,49.03
2019-04-26T12:53:44.476Z,48.84
2019-04-26T12:56:15.377Z,49.10
2019-04-26T12:58:50.075Z,48.88
2019-04-26T13:01:19.202Z,48.90
2019-04-26T13:04:02.668Z,48.90
2019-04-26T13:06:36.168Z,49.02
2019-04-26T13:09:10.010Z,49.12
2019-04-26T13:11:48.799Z,49.71
2019-04-26T13:14:33.073Z,50.41
2019-04-26T13:17:05.621Z,52.49
2019-04-26T13:19:37.447Z,52.99
2019-04-26T13:22:12.175Z,52.97
2019-04-26T13:24:41.033Z,52.90
2019-04-26T13:27:12.325Z,54.30
2019-04-26T13:29:43.373Z,53.96
2019-04-26T13:32:14.344Z,53.09
2019-04-26T13:34:45.535Z,52.70
2019-04-26T13:37:16.520Z,52.38
2019-04-26T13:39:47.447Z,52.85
2019-04-26T13:42:18.714Z,53.07
2019-04-26T13:44:57.493Z,53.21
2019-04-26T13:47:30.050Z,53.88
2019-04-26T13:50:12.570Z,53.88
2019-04-26T13:52:43.472Z,53.52
2019-04-26T13:55:14.402Z,53.81
2019-04-26T13:57:46.152Z,54.36
2019-04-26T14:00:18.963Z,54.30
2019-04-26T14:02:49.872Z,54.45
2019-04-26T14:05:21.690Z,54.37
2019-04-26T14:07:52.587Z,54.10
2019-04-26T14:10:23.632Z,54.03
2019-04-26T14:12:54.548Z,53.65
2019-04-26T14:15:25.492Z,53.20
2019-04-26T14:17:56.543Z,53.08
2019-04-26T14:20:30.097Z,52.87
2019-04-26T14:23:02.717Z,52.47
2019-04-26T14:25:47.227Z,52.63
2019-04-26T14:28:20.325Z,52.21
2019-04-26T14:30:50.843Z,52.37
2019-04-26T14:33:21.750Z,52.37
2019-04-26T14:35:53.512Z,52.75
2019-04-26T14:38:28.115Z,52.11
2019-04-26T14:41:04.166Z,51.90
2019-04-26T14:43:40.713Z,51.52
2019-04-26T14:46:02.432Z,51.15
2019-04-26T14:48:36.258Z,50.99
2019-04-26T14:51:08.349Z,51.12
2019-04-26T14:53:39.473Z,52.02
2019-04-26T14:56:10.457Z,51.92
2019-04-26T14:58:42.313Z,52.17
2019-04-26T15:01:32.316Z,52.50
2019-04-26T15:04:07.408Z,52.16
2019-04-26T15:06:42.398Z,52.29
2019-04-26T15:09:19.846Z,52.00
2019-04-26T15:11:56.929Z,52.57
2019-04-26T15:14:20.630Z,52.46
2019-04-26T15:16:51.363Z,52.51
2019-04-26T15:19:22.600Z,52.53
2019-04-26T15:21:55.402Z,52.31
2019-04-26T15:24:26.306Z,52.13
2019-04-26T15:26:58.168Z,52.31
2019-04-26T15:29:29.920Z,52.14
2019-04-26T15:32:00.847Z,51.95
2019-04-26T15:34:33.364Z,52.50
2019-04-26T15:37:05.235Z,52.27
2019-04-26T15:39:37.780Z,51.93
2019-04-26T15:42:25.217Z,51.69
2019-04-26T15:44:57.439Z,51.56
2019-04-26T15:47:36.808Z,52.12
2019-04-26T15:50:10.112Z,52.12
2019-04-26T15:52:43.885Z,52.20
2019-04-26T15:55:14.900Z,51.99
2019-04-26T15:57:45.840Z,52.09
2019-04-26T16:00:16.827Z,52.55
2019-04-26T16:02:47.768Z,52.80
2019-04-26T16:05:18.672Z,52.86
2019-04-26T16:07:50.418Z,53.11
2019-04-26T16:10:25.594Z,53.72
2019-04-26T16:13:01.258Z,53.75
2019-04-26T16:15:29.717Z,53.72
2019-04-26T16:18:03.855Z,53.61
2019-04-26T16:20:37.701Z,53.77
2019-04-26T16:23:07.454Z,53.75
2019-04-26T16:25:39.337Z,53.51
2019-04-26T16:28:30.689Z,53.49
2019-04-26T16:31:11.066Z,53.34
2019-04-26T16:33:43.122Z,52.87
2019-04-26T16:36:15.011Z,52.84
2019-04-26T16:38:48.578Z,52.74
2019-04-26T16:41:21.847Z,52.83
2019-04-26T16:43:53.575Z,52.77
2019-04-26T16:46:25.011Z,52.84
2019-04-26T16:49:02.304Z,52.96
2019-04-26T16:51:28.554Z,53.16
2019-04-26T16:54:08.724Z,53.33
2019-04-26T16:56:36.014Z,53.05
2019-04-26T16:59:06.494Z,53.56
2019-04-26T17:01:38.135Z,53.67
2019-04-26T17:04:11.246Z,53.67
2019-04-26T17:06:44.736Z,53.91
2019-04-26T17:09:17.368Z,53.94
2019-04-26T17:11:48.257Z,53.98
2019-04-26T17:14:19.185Z,53.97
2019-04-26T17:16:50.082Z,53.83
2019-04-26T17:19:22.644Z,53.94
2019-04-26T17:22:03.699Z,53.88
2019-04-26T17:24:38.148Z,54.22
2019-04-26T17:27:12.844Z,54.07
2019-04-26T17:29:43.166Z,54.07
2019-04-26T17:32:17.334Z,54.21
2019-04-26T17:34:46.777Z,54.37
2019-04-26T17:37:21.949Z,54.32
2019-04-26T17:39:55.397Z,54.39
2019-04-26T17:42:29.781Z,54.22
2019-04-26T17:45:03.894Z,54.21
2019-04-26T17:47:34.687Z,54.22
2019-04-26T17:50:06.104Z,54.41
2019-04-26T17:52:37.633Z,54.29
2019-04-26T17:55:11.938Z,54.32
2019-04-26T17:57:48.448Z,54.50
2019-04-26T18:00:21.072Z,54.39
2019-04-26T18:02:50.916Z,54.59
2019-04-26T18:05:24.386Z,54.61
2019-04-26T18:07:58.422Z,54.78
2019-04-26T18:10:28.279Z,54.82
2019-04-26T18:13:00.456Z,55.03
2019-04-26T18:15:33.311Z,55.06
2019-04-26T18:18:23.294Z,55.24
2019-04-26T18:21:03.281Z,55.49
2019-04-26T18:23:34.546Z,55.61
2019-04-26T18:26:06.520Z,55.67
2019-04-26T18:28:37.419Z,55.58
2019-04-26T18:31:10.435Z,55.58
2019-04-26T18:33:42.606Z,55.98
2019-04-26T18:36:13.634Z,55.92
2019-04-26T18:38:48.593Z,56.02
2019-04-26T18:41:23.168Z,56.02
2019-04-26T18:43:54.034Z,56.05
2019-04-26T18:46:31.732Z,56.15
2019-04-26T18:49:01.419Z,56.17
2019-04-26T18:51:33.423Z,56.29
2019-04-26T18:54:09.316Z,56.25
2019-04-26T18:56:41.315Z,56.46
2019-04-26T18:59:15.294Z,56.45
2019-04-26T19:01:45.174Z,56.44
2019-04-26T19:04:16.147Z,56.48
2019-04-26T19:06:47.096Z,56.52
2019-04-26T19:09:21.256Z,56.61
2019-04-26T19:11:55.954Z,56.69
2019-04-26T19:14:27.591Z,56.85
2019-04-26T19:17:01.908Z,56.92
2019-04-26T19:19:34.647Z,57.09
2019-04-26T19:22:09.458Z,57.27
2019-04-26T19:24:39.577Z,57.57
2019-04-26T19:27:12.524Z,57.69
2019-04-26T19:29:43.642Z,58.06
2019-04-26T19:32:14.836Z,58.32
2019-04-26T19:34:45.788Z,58.51
2019-04-26T19:37:16.957Z,58.78
2019-04-26T19:39:51.089Z,58.83
2019-04-26T19:42:30.904Z,58.66
2019-04-26T19:45:13.955Z,58.61
2019-04-26T19:47:45.779Z,58.63
2019-04-26T19:50:26.313Z,58.73
2019-04-26T19:53:05.014Z,58.76
2019-04-26T19:55:37.563Z,58.82
2019-04-26T19:58:16.167Z,58.90
2019-04-26T20:00:46.767Z,59.11
2019-04-26T20:03:16.957Z,59.10
2019-04-26T20:05:48.114Z,59.21
2019-04-26T20:08:19.125Z,59.36
2019-04-26T20:10:50.034Z,59.57
2019-04-26T20:13:22.150Z,59.61
2019-04-26T20:15:57.480Z,59.63
2019-04-26T20:18:25.918Z,59.68
2019-04-26T20:20:56.821Z,59.73
2019-04-26T20:23:27.810Z,59.76
2019-04-26T20:26:02.354Z,59.83
2019-04-26T20:28:34.287Z,59.87
2019-04-26T20:31:09.633Z,59.94
2019-04-26T20:33:42.428Z,60.12
2019-04-26T20:36:13.559Z,60.23
2019-04-26T20:38:47.421Z,60.46
2019-04-26T20:41:17.246Z,60.51
2019-04-26T20:44:03.102Z,60.72
2019-04-26T20:46:25.106Z,60.75
2019-04-26T20:48:56.356Z,60.88
2019-04-26T20:51:27.470Z,61.05
2019-04-26T20:53:58.507Z,61.20
2019-04-26T20:56:29.471Z,61.33
2019-04-26T20:59:01.548Z,61.33
2019-04-26T21:01:32.641Z,61.41
2019-04-26T21:04:03.773Z,61.66
2019-04-26T21:06:36.956Z,61.78
2019-04-26T21:09:09.295Z,61.96
2019-04-26T21:11:41.231Z,61.94
2019-04-26T21:14:12.448Z,62.03
2019-04-26T21:16:49.281Z,62.07
2019-04-26T21:19:18.985Z,62.22
2019-04-26T21:21:50.000Z,62.39
2019-04-26T21:24:23.596Z,62.55
2019-04-26T21:26:59.915Z,62.50
2019-04-26T21:29:43.496Z,62.57
2019-04-26T21:32:24.567Z,62.68
2019-04-26T21:34:56.752Z,62.62
2019-04-26T21:37:29.313Z,62.74
2019-04-26T21:40:22.646Z,62.95
2019-04-26T21:42:49.445Z,63.07
2019-04-26T21:45:21.525Z,63.00
2019-04-26T21:47:54.283Z,62.92
2019-04-26T21:50:25.460Z,62.97
2019-04-26T21:52:58.572Z,63.05
2019-04-26T21:55:35.346Z,63.13
2019-04-26T21:58:02.750Z,63.23
2019-04-26T22:00:49.169Z,63.28
2019-04-26T22:03:20.541Z,63.40
2019-04-26T22:05:51.537Z,63.39
2019-04-26T22:08:24.834Z,63.44
2019-04-26T22:10:56.896Z,63.54
2019-04-26T22:13:33.301Z,63.58
2019-04-26T22:16:34.446Z,63.63
2019-04-26T22:19:14.624Z,63.68
2019-04-26T22:21:47.386Z,63.58
2019-04-26T22:24:29.101Z,63.50
2019-04-26T22:27:00.134Z,63.59
2019-04-26T22:29:31.063Z,63.67
2019-04-26T22:32:03.684Z,63.76
2019-04-26T22:34:37.299Z,63.79
2019-04-26T22:37:11.732Z,63.87
2019-04-26T22:39:41.260Z,63.93
2019-04-26T22:42:13.808Z,64.10
2019-04-26T22:44:49.452Z,64.08
2019-04-26T22:47:23.930Z,64.14
2019-04-26T22:49:54.643Z,64.13
2019-04-26T22:52:25.633Z,64.16
2019-04-26T22:54:56.612Z,64.32
2019-04-26T22:57:28.009Z,64.41
2019-04-26T22:59:58.902Z,64.40
2019-04-26T23:02:30.372Z,64.40
2019-04-26T23:05:02.102Z,64.45
2019-04-26T23:07:33.979Z,64.62
2019-04-26T23:10:07.219Z,64.67
2019-04-26T23:12:45.547Z,64.61
2019-04-26T23:15:34.585Z,64.59
2019-04-26T23:18:08.363Z,64.72
2019-04-26T23:20:42.663Z,64.67
2019-04-26T23:23:14.331Z,64.71
2019-04-26T23:25:45.234Z,64.77
2019-04-26T23:28:16.171Z,65.05
2019-04-26T23:30:47.145Z,65.19
2019-04-26T23:33:18.120Z,65.44
2019-04-26T23:35:49.019Z,65.45
2019-04-26T23:38:19.956Z,65.37
2019-04-26T23:40:50.867Z,65.45
2019-04-26T23:43:25.402Z,65.44
2019-04-26T23:45:54.471Z,65.41
2019-04-26T23:48:26.248Z,65.39
2019-04-26T23:50:59.892Z,65.45
2019-04-26T23:53:29.762Z,65.53
2019-04-26T23:56:00.668Z,65.66
2019-04-26T23:58:32.451Z,65.77
